Time;durP1;ratioP1;P1;durP2;ratioP2;P2;SDS_P1;SDS_P2;PMS_P1;PMS_P2;Temp;Humidity;BMP_temperature;BMP_pressure;BME280_temperature;BME280_humidity;BME280_pressure;Samples;Min_cycle;Max_cycle;Signal;HPM_P1;HPM_P2
2023/06/28 00:00:14;;;;;;;1.92;1.52;;;13.70;99.90;;;;;;5022016;28;20033;-79
2023/06/28 00:02:39;;;;;;;1.40;1.30;;;13.70;99.90;;;;;;5024460;28;20018;-78
2023/06/28 00:05:07;;;;;;;2.13;1.70;;;13.70;99.90;;;;;;5021051;28;20361;-79
2023/06/28 00:07:33;;;;;;;7.43;2.00;;;13.70;99.90;;;;;;5019225;28;20026;-77
2023/06/28 00:09:59;;;;;;;2.70;1.50;;;13.70;99.90;;;;;;5020135;28;20061;-78
2023/06/28 00:12:28;;;;;;;2.65;1.40;;;13.50;99.90;;;;;;5020708;28;20038;-78
2023/06/28 00:14:54;;;;;;;2.90;1.92;;;13.50;99.90;;;;;;5026511;28;20041;-79
2023/06/28 00:17:27;;;;;;;3.72;1.55;;;13.50;99.90;;;;;;5032152;28;20048;-80
2023/06/28 00:19:56;;;;;;;3.15;1.27;;;13.50;99.90;;;;;;5032186;28;20010;-80
2023/06/28 00:22:28;;;;;;;6.13;1.60;;;13.40;99.90;;;;;;5029008;28;20050;-78
2023/06/28 00:24:54;;;;;;;1.73;1.40;;;13.40;99.90;;;;;;5032933;28;20045;-78
2023/06/28 00:27:20;;;;;;;2.55;1.25;;;13.30;99.90;;;;;;5035696;28;20014;-79
2023/06/28 00:29:46;;;;;;;2.22;1.20;;;13.30;99.90;;;;;;5033841;28;20040;-81
2023/06/28 00:32:11;;;;;;;1.67;1.35;;;13.40;99.90;;;;;;5023839;28;20022;-81
2023/06/28 00:34:37;;;;;;;4.32;1.70;;;13.40;99.90;;;;;;5034225;28;20026;-79
2023/06/28 00:37:03;;;;;;;1.52;1.42;;;13.40;99.90;;;;;;5033557;28;20030;-79
2023/06/28 00:39:29;;;;;;;2.92;1.70;;;13.40;99.90;;;;;;5029673;28;20045;-78
2023/06/28 00:41:55;;;;;;;3.55;1.30;;;13.40;99.90;;;;;;5028582;28;20097;-79
2023/06/28 00:44:20;;;;;;;6.07;2.03;;;13.40;99.90;;;;;;5028021;28;20075;-79
2023/06/28 00:46:47;;;;;;;4.55;1.63;;;13.50;99.90;;;;;;5023642;28;20243;-78
2023/06/28 00:49:13;;;;;;;1.85;1.30;;;13.40;99.90;;;;;;5024359;28;20049;-81
2023/06/28 00:51:39;;;;;;;1.65;1.40;;;13.40;99.90;;;;;;5022861;28;20392;-77
2023/06/28 00:54:05;;;;;;;2.33;1.63;;;13.30;99.90;;;;;;5023891;28;20028;-78
2023/06/28 00:56:31;;;;;;;1.95;1.20;;;13.20;99.90;;;;;;5023595;28;20029;-78
2023/06/28 00:58:57;;;;;;;4.25;1.48;;;13.10;99.90;;;;;;5027654;28;20085;-79
2023/06/28 01:01:23;;;;;;;1.98;1.58;;;13.10;99.90;;;;;;5023030;28;20084;-78
2023/06/28 01:03:50;;;;;;;2.63;1.83;;;13.00;99.90;;;;;;5031712;28;20037;-79
2023/06/28 01:06:17;;;;;;;2.95;1.38;;;12.90;99.90;;;;;;5031974;28;20075;-79
2023/06/28 01:08:44;;;;;;;1.83;1.42;;;12.90;99.90;;;;;;5036412;28;20026;-79
2023/06/28 01:11:10;;;;;;;4.30;1.95;;;12.80;99.90;;;;;;5031233;28;20064;-80
2023/06/28 01:13:37;;;;;;;6.38;2.13;;;12.80;99.90;;;;;;5027504;28;20033;-80
2023/06/28 01:16:04;;;;;;;3.17;1.83;;;12.80;99.90;;;;;;5034161;28;20041;-79
2023/06/28 01:18:33;;;;;;;3.58;1.70;;;12.70;99.90;;;;;;5025234;28;20085;-79
2023/06/28 01:21:02;;;;;;;5.07;2.25;;;12.70;99.90;;;;;;5019568;28;20041;-78
2023/06/28 01:23:28;;;;;;;4.72;1.75;;;12.60;99.90;;;;;;5023644;28;20252;-78
2023/06/28 01:26:02;;;;;;;3.88;2.28;;;12.60;99.90;;;;;;5023021;28;20229;-78
2023/06/28 01:29:00;;;;;;;2.78;1.67;;;12.60;99.90;;;;;;5026087;28;20093;-80
2023/06/28 01:31:27;;;;;;;2.13;1.92;;;12.60;99.90;;;;;;5039422;28;20026;-80
2023/06/28 01:34:39;;;;;;;4.45;1.73;;;12.60;99.90;;;;;;5039251;28;20029;-81
2023/06/28 01:37:05;;;;;;;2.03;1.73;;;12.70;99.90;;;;;;5039621;28;20022;-81
2023/06/28 01:39:32;;;;;;;3.15;1.98;;;12.80;99.90;;;;;;5040846;28;20007;-83
2023/06/28 01:42:00;;;;;;;8.07;2.38;;;12.90;99.90;;;;;;5040002;28;20085;-81
2023/06/28 01:44:37;;;;;;;3.83;1.92;;;13.00;99.90;;;;;;5039840;28;20017;-81
2023/06/28 01:47:28;;;;;;;4.65;1.90;;;13.10;99.90;;;;;;5040212;28;20033;-81
2023/06/28 01:50:10;;;;;;;2.90;1.52;;;13.30;99.90;;;;;;5040328;28;20034;-81
2023/06/28 01:52:36;;;;;;;7.78;1.88;;;13.30;99.90;;;;;;5039571;28;20049;-82
2023/06/28 01:55:02;;;;;;;1.58;1.30;;;13.40;99.90;;;;;;5039793;28;20014;-81
2023/06/28 01:57:27;;;;;;;3.80;1.90;;;13.50;99.90;;;;;;5039379;28;20010;-81
2023/06/28 01:59:54;;;;;;;2.70;1.90;;;13.60;99.90;;;;;;5040256;28;20034;-82
2023/06/28 02:02:20;;;;;;;2.78;1.98;;;13.70;99.90;;;;;;5039564;28;20042;-81
2023/06/28 02:05:17;;;;;;;4.30;1.80;;;13.70;99.90;;;;;;5039397;28;20045;-83
2023/06/28 02:07:43;;;;;;;2.08;1.60;;;13.80;99.90;;;;;;5046673;23;20034;-82
2023/06/28 02:10:10;;;;;;;5.05;2.17;;;13.80;99.90;;;;;;5019845;28;20102;-82
2023/06/28 02:12:35;;;;;;;1.35;1.25;;;13.70;99.90;;;;;;5159265;22;20053;-82
2023/06/28 02:15:02;;;;;;;2.33;1.55;;;13.50;99.90;;;;;;5059424;28;20009;-82
2023/06/28 02:17:56;;;;;;;1.27;1.20;;;13.40;99.90;;;;;;5058707;28;20025;-81
2023/06/28 02:20:22;;;;;;;6.25;2.00;;;13.20;99.90;;;;;;5059121;28;20094;-82
2023/06/28 02:22:47;;;;;;;2.72;1.63;;;13.20;99.90;;;;;;5058908;28;20013;-81
2023/06/28 02:25:13;;;;;;;1.98;1.40;;;13.30;99.90;;;;;;5059294;28;20044;-82
2023/06/28 02:27:39;;;;;;;2.30;1.63;;;13.20;99.90;;;;;;5049345;28;20049;-82
2023/06/28 02:30:05;;;;;;;3.03;1.40;;;13.30;99.90;;;;;;5058639;28;20029;-83
2023/06/28 02:32:30;;;;;;;2.72;1.42;;;13.30;99.90;;;;;;5057572;28;20048;-82
2023/06/28 02:34:57;;;;;;;5.70;1.50;;;13.30;99.90;;;;;;5058257;28;20009;-82
2023/06/28 02:37:24;;;;;;;2.15;1.27;;;13.30;99.90;;;;;;5058403;28;20014;-82
2023/06/28 02:39:49;;;;;;;4.13;1.85;;;13.20;99.90;;;;;;5058074;28;20071;-82
2023/06/28 02:42:15;;;;;;;6.50;1.73;;;13.20;99.90;;;;;;5058315;28;20049;-81
2023/06/28 02:44:41;;;;;;;1.90;1.60;;;13.20;99.90;;;;;;5058376;28;20040;-82
2023/06/28 02:47:06;;;;;;;4.28;1.83;;;13.10;99.90;;;;;;5058456;28;20017;-81
2023/06/28 02:49:32;;;;;;;2.97;1.35;;;13.10;99.90;;;;;;5102588;22;20008;-82
2023/06/28 02:51:58;;;;;;;3.13;1.70;;;13.10;99.90;;;;;;5037520;28;20076;-82
2023/06/28 02:54:23;;;;;;;3.22;1.27;;;12.90;99.90;;;;;;5036864;28;20002;-82
2023/06/28 02:56:49;;;;;;;3.08;1.73;;;12.90;99.90;;;;;;5034969;28;20045;-81
2023/06/28 02:59:14;;;;;;;3.15;1.60;;;12.80;99.90;;;;;;5034687;28;20045;-81
2023/06/28 03:01:40;;;;;;;1.75;1.35;;;12.70;99.90;;;;;;5035513;28;20062;-81
2023/06/28 03:04:07;;;;;;;2.25;1.30;;;12.70;99.90;;;;;;5030965;28;20037;-81
2023/06/28 03:06:34;;;;;;;2.20;1.35;;;12.60;99.90;;;;;;5028453;28;20026;-81
2023/06/28 03:09:00;;;;;;;3.42;1.60;;;12.60;99.90;;;;;;5033415;28;20036;-81
2023/06/28 03:11:26;;;;;;;2.85;1.58;;;12.60;99.90;;;;;;5036640;28;20038;-82
2023/06/28 03:13:51;;;;;;;4.78;2.13;;;12.70;99.90;;;;;;5036784;28;20014;-81
2023/06/28 03:16:19;;;;;;;2.80;1.77;;;12.60;99.90;;;;;;5037634;28;20045;-82
2023/06/28 03:18:45;;;;;;;3.20;1.35;;;12.90;99.90;;;;;;5036484;28;20030;-81
2023/06/28 03:21:10;;;;;;;2.88;1.52;;;12.90;99.90;;;;;;5037927;28;20105;-82
2023/06/28 03:23:38;;;;;;;3.92;1.27;;;12.90;99.90;;;;;;5038254;28;20104;-82
2023/06/28 03:26:04;;;;;;;1.63;1.20;;;12.90;99.90;;;;;;5038018;28;20053;-82
2023/06/28 03:28:29;;;;;;;1.58;1.48;;;12.90;99.90;;;;;;5038193;28;20018;-81
2023/06/28 03:30:56;;;;;;;2.67;1.38;;;12.90;99.90;;;;;;5038553;28;20014;-82
2023/06/28 03:33:22;;;;;;;1.77;1.33;;;13.00;99.90;;;;;;5054769;28;20082;-82
2023/06/28 03:35:47;;;;;;;1.30;1.20;;;13.10;99.90;;;;;;5054076;22;20050;-82
2023/06/28 03:38:15;;;;;;;2.85;1.50;;;13.10;99.90;;;;;;5053699;28;20037;-82
2023/06/28 03:40:41;;;;;;;2.42;2.20;;;13.10;99.90;;;;;;5051177;28;20041;-80
2023/06/28 03:43:06;;;;;;;1.85;1.60;;;13.20;99.90;;;;;;5051993;28;20026;-82
2023/06/28 03:45:33;;;;;;;1.40;1.30;;;13.20;99.90;;;;;;5031478;28;20026;-82
2023/06/28 03:47:59;;;;;;;2.63;1.63;;;13.20;99.90;;;;;;5035114;28;20021;-82
2023/06/28 03:50:25;;;;;;;5.47;1.77;;;13.30;99.90;;;;;;5051751;28;20025;-82
2023/06/28 03:52:50;;;;;;;3.75;1.48;;;13.30;99.90;;;;;;5053574;28;20030;-81
2023/06/28 03:55:16;;;;;;;5.20;1.48;;;13.50;99.90;;;;;;5037872;28;20013;-82
2023/06/28 03:57:42;;;;;;;7.32;1.77;;;14.30;99.90;;;;;;5053637;28;20060;-82
2023/06/28 04:00:12;;;;;;;2.35;1.30;;;13.50;99.90;;;;;;5053967;28;20010;-81
2023/06/28 04:02:38;;;;;;;2.97;1.33;;;13.40;99.90;;;;;;5054305;28;20018;-82
2023/06/28 04:05:05;;;;;;;2.10;1.40;;;13.50;99.90;;;;;;5037803;28;20038;-82
2023/06/28 04:07:31;;;;;;;2.97;1.35;;;13.50;99.90;;;;;;5053682;28;20081;-82
2023/06/28 04:09:56;;;;;;;5.28;1.92;;;13.60;99.90;;;;;;5054153;28;20037;-82
2023/06/28 04:12:48;;;;;;;2.13;1.58;;;13.50;99.90;;;;;;5052339;28;20026;-81
2023/06/28 04:15:13;;;;;;;3.20;2.15;;;13.40;99.90;;;;;;5031877;28;20029;-82
2023/06/28 04:17:39;;;;;;;8.13;1.98;;;13.40;99.90;;;;;;5037281;28;20030;-82
2023/06/28 04:20:07;;;;;;;2.13;1.83;;;13.40;99.90;;;;;;5034957;28;20109;-81
2023/06/28 04:22:33;;;;;;;1.42;1.35;;;13.50;99.90;;;;;;5043953;28;20124;-82
2023/06/28 04:24:59;;;;;;;3.10;1.63;;;13.50;99.90;;;;;;5047400;28;20010;-81
2023/06/28 04:27:25;;;;;;;2.92;2.00;;;13.70;99.90;;;;;;5049985;28;20037;-82
2023/06/28 04:29:51;;;;;;;3.35;1.65;;;13.80;99.90;;;;;;5047120;28;20102;-82
2023/06/28 04:32:26;;;;;;;1.60;1.50;;;13.90;99.90;;;;;;5043513;28;20025;-82
2023/06/28 04:34:53;;;;;;;2.35;1.23;;;14.00;99.90;;;;;;5037809;28;20030;-82
2023/06/28 04:37:27;;;;;;;2.08;1.40;;;14.00;99.90;;;;;;5029387;28;20025;-83
2023/06/28 04:39:55;;;;;;;2.05;1.40;;;14.10;99.90;;;;;;5032871;28;20026;-82
2023/06/28 04:42:21;;;;;;;3.00;2.22;;;14.20;99.90;;;;;;5027637;28;20032;-81
2023/06/28 04:44:47;;;;;;;2.30;1.52;;;14.30;99.90;;;;;;5041105;28;20065;-82
2023/06/28 04:47:15;;;;;;;1.45;1.27;;;14.40;99.90;;;;;;5031151;28;20041;-82
2023/06/28 04:49:47;;;;;;;4.32;1.90;;;14.50;99.90;;;;;;5050254;28;20021;-82
2023/06/28 04:52:13;;;;;;;1.48;1.08;;;14.50;99.90;;;;;;5032240;28;20097;-82
2023/06/28 04:54:41;;;;;;;2.00;1.10;;;14.60;99.90;;;;;;5035115;28;20022;-82
2023/06/28 04:57:07;;;;;;;3.78;1.35;;;14.60;99.90;;;;;;5032247;28;20029;-83
2023/06/28 04:59:33;;;;;;;2.22;1.90;;;14.60;99.90;;;;;;5029769;28;20026;-84
2023/06/28 05:01:58;;;;;;;1.67;1.33;;;14.70;99.90;;;;;;5028594;28;20486;-83
2023/06/28 05:04:24;;;;;;;6.35;2.13;;;14.90;99.90;;;;;;5030574;28;20032;-84
2023/06/28 05:06:52;;;;;;;1.92;1.67;;;14.90;99.90;;;;;;5028293;28;20033;-83
2023/06/28 05:09:18;;;;;;;1.65;1.50;;;15.10;99.90;;;;;;5028468;28;20049;-84
2023/06/28 05:11:44;;;;;;;2.20;1.70;;;15.20;99.90;;;;;;5027957;28;20507;-85
2023/06/28 05:14:09;;;;;;;3.53;1.58;;;15.20;99.90;;;;;;5029385;28;20029;-84
2023/06/28 05:16:35;;;;;;;6.93;1.58;;;15.30;99.90;;;;;;5037606;28;20250;-83
2023/06/28 05:19:00;;;;;;;2.92;1.30;;;15.40;99.90;;;;;;5022579;28;20022;-84
2023/06/28 05:21:26;;;;;;;2.10;1.23;;;15.50;99.90;;;;;;5022055;28;20037;-85
2023/06/28 05:23:51;;;;;;;1.75;1.63;;;15.70;99.90;;;;;;5037501;28;20093;-83
2023/06/28 05:26:17;;;;;;;1.92;1.58;;;15.70;99.90;;;;;;5037656;28;20310;-83
2023/06/28 05:28:43;;;;;;;1.30;1.20;;;15.80;99.90;;;;;;5037974;28;20133;-83
2023/06/28 05:31:08;;;;;;;2.88;1.40;;;15.90;99.90;;;;;;5037732;28;20205;-84
2023/06/28 05:33:34;;;;;;;2.25;1.48;;;16.00;99.90;;;;;;5037234;28;20026;-83
2023/06/28 05:35:59;;;;;;;3.97;1.75;;;16.00;99.90;;;;;;5014924;28;20058;-84
2023/06/28 05:38:25;;;;;;;3.20;1.73;;;16.20;99.90;;;;;;5026420;28;20022;-82
2023/06/28 05:40:55;;;;;;;2.15;1.65;;;16.20;99.90;;;;;;5012075;28;20034;-80
2023/06/28 05:43:22;;;;;;;;;;;16.20;99.90;;;;;;5012714;28;20091;-79
2023/06/28 05:45:49;;;;;;;2.20;1.48;;;16.30;99.90;;;;;;5013242;28;20300;-79
2023/06/28 05:48:15;;;;;;;1.85;1.60;;;16.40;99.90;;;;;;5010281;28;20025;-79
2023/06/28 05:50:42;;;;;;;2.05;1.65;;;16.60;99.90;;;;;;5013902;28;20037;-79
2023/06/28 05:53:08;;;;;;;1.75;1.65;;;16.80;99.90;;;;;;5016373;28;20093;-79
2023/06/28 05:55:34;;;;;;;6.90;1.98;;;17.10;99.90;;;;;;5021289;28;20419;-78
2023/06/28 05:57:59;;;;;;;1.92;1.70;;;17.20;99.90;;;;;;5019795;28;20363;-79
2023/06/28 06:00:25;;;;;;;1.80;1.33;;;17.30;99.90;;;;;;5013588;28;20026;-77
2023/06/28 06:02:50;;;;;;;5.43;1.50;;;17.40;99.90;;;;;;5020941;28;20021;-79
2023/06/28 06:05:16;;;;;;;5.80;1.92;;;17.60;99.90;;;;;;5018455;28;20080;-79
2023/06/28 06:07:42;;;;;;;3.85;1.80;;;17.60;99.90;;;;;;5020949;28;20092;-80
2023/06/28 06:10:09;;;;;;;2.53;1.38;;;17.60;99.90;;;;;;5023644;28;20029;-83
2023/06/28 06:12:35;;;;;;;3.05;1.75;;;17.60;99.90;;;;;;5013629;28;20056;-77
2023/06/28 06:15:01;;;;;;;3.15;1.38;;;17.70;99.90;;;;;;5019501;28;20318;-80
2023/06/28 06:17:27;;;;;;;3.63;1.52;;;17.80;99.90;;;;;;5017653;28;20029;-78
2023/06/28 06:19:53;;;;;;;1.77;1.58;;;17.90;99.90;;;;;;5034139;28;20041;-78
2023/06/28 06:22:18;;;;;;;2.72;2.00;;;18.00;99.90;;;;;;5019402;28;20024;-82
2023/06/28 06:24:44;;;;;;;3.63;1.92;;;18.00;99.90;;;;;;5022500;28;20037;-83
2023/06/28 06:27:09;;;;;;;3.00;1.52;;;17.90;99.90;;;;;;5025034;28;20022;-82
2023/06/28 06:29:35;;;;;;;5.35;2.25;;;17.90;99.90;;;;;;5020317;28;20018;-78
2023/06/28 06:32:00;;;;;;;3.65;1.98;;;18.00;99.90;;;;;;5006783;28;20022;-79
2023/06/28 06:34:26;;;;;;;4.82;2.10;;;18.20;99.90;;;;;;5017088;28;20199;-78
2023/06/28 06:36:54;;;;;;;4.78;2.00;;;18.30;99.90;;;;;;5001188;28;20073;-80
2023/06/28 06:39:20;;;;;;;2.13;1.90;;;18.40;99.90;;;;;;5017533;28;20018;-78
2023/06/28 06:41:45;;;;;;;6.57;2.42;;;18.30;99.90;;;;;;5016985;28;20059;-79
2023/06/28 06:44:11;;;;;;;3.88;2.17;;;18.60;99.90;;;;;;5024863;28;20191;-90
2023/06/28 06:46:37;;;;;;;3.50;2.78;;;18.60;99.90;;;;;;5026120;28;20018;-79
2023/06/28 06:49:03;;;;;;;7.20;3.53;;;18.80;99.90;;;;;;5020941;28;20018;-81
2023/06/28 06:51:28;;;;;;;3.10;2.22;;;18.80;99.90;;;;;;5036533;28;20132;-83
2023/06/28 06:53:54;;;;;;;5.60;2.33;;;18.90;99.90;;;;;;5035830;28;20036;-78
2023/06/28 06:56:21;;;;;;;6.32;2.60;;;18.90;99.90;;;;;;5021306;28;20045;-79
2023/06/28 06:58:47;;;;;;;3.80;2.40;;;18.90;99.90;;;;;;5021051;28;20026;-80
2023/06/28 07:01:13;;;;;;;2.92;2.45;;;18.90;99.90;;;;;;5017257;28;20068;-81
2023/06/28 07:03:39;;;;;;;6.65;2.22;;;19.00;99.90;;;;;;5020170;28;20030;-80
2023/06/28 07:06:05;;;;;;;3.25;2.53;;;19.10;99.90;;;;;;5018361;28;20050;-83
2023/06/28 07:08:31;;;;;;;3.10;1.95;;;19.20;99.90;;;;;;5007607;28;20409;-78
2023/06/28 07:10:57;;;;;;;5.25;2.42;;;19.00;99.90;;;;;;5014942;28;20041;-82
2023/06/28 07:13:22;;;;;;;10.68;2.33;;;19.00;99.90;;;;;;4999288;28;20026;-85
2023/06/28 07:15:48;;;;;;;3.60;2.10;;;18.90;99.90;;;;;;5006182;28;20029;-80
2023/06/28 07:18:14;;;;;;;6.65;2.72;;;19.00;99.90;;;;;;5011507;28;20022;-78
2023/06/28 07:20:39;;;;;;;5.28;2.28;;;19.10;99.90;;;;;;5024824;28;20076;-78
2023/06/28 07:23:05;;;;;;;9.13;3.38;;;19.20;99.90;;;;;;4994799;28;20755;-87
2023/06/28 07:25:32;;;;;;;5.28;2.72;;;19.30;99.60;;;;;;5018144;28;20113;-79
2023/06/28 07:27:58;;;;;;;4.97;2.95;;;19.50;99.90;;;;;;5011899;28;20037;-83
2023/06/28 07:30:23;;;;;;;3.58;2.42;;;19.80;98.10;;;;;;5014872;28;20240;-81
2023/06/28 07:32:49;;;;;;;4.65;2.55;;;19.90;97.40;;;;;;5017406;28;20022;-78
2023/06/28 07:35:15;;;;;;;7.00;2.78;;;20.10;96.50;;;;;;5017166;28;20048;-78
2023/06/28 07:37:40;;;;;;;7.25;3.13;;;20.30;96.20;;;;;;5021390;28;20022;-82
2023/06/28 07:40:07;;;;;;;3.13;2.50;;;20.70;95.20;;;;;;5012958;28;20072;-77
2023/06/28 07:42:32;;;;;;;6.05;2.17;;;21.00;93.30;;;;;;5013998;28;20058;-79
2023/06/28 07:44:58;;;;;;;4.47;2.58;;;21.10;93.10;;;;;;5015497;28;20030;-79
2023/06/28 07:47:24;;;;;;;2.88;2.22;;;21.40;93.30;;;;;;5008951;28;20034;-79
2023/06/28 07:49:49;;;;;;;4.85;3.00;;;21.50;93.40;;;;;;5008771;28;20034;-78
2023/06/28 07:52:15;;;;;;;5.43;2.92;;;21.60;92.30;;;;;;5009040;28;20030;-80
2023/06/28 07:54:40;;;;;;;5.13;3.30;;;21.50;91.50;;;;;;5011168;28;20022;-77
2023/06/28 07:57:09;;;;;;;6.88;3.45;;;21.60;91.70;;;;;;5007688;28;20406;-80
2023/06/28 07:59:34;;;;;;;6.75;2.47;;;21.70;91.70;;;;;;5007738;28;20054;-80
2023/06/28 08:02:00;;;;;;;6.35;2.25;;;21.80;90.00;;;;;;5008530;28;20030;-80
2023/06/28 08:04:25;;;;;;;7.80;2.30;;;21.80;88.40;;;;;;5008913;28;20022;-80
2023/06/28 08:06:51;;;;;;;6.38;2.35;;;22.10;90.10;;;;;;5026572;28;20398;-81
2023/06/28 08:09:17;;;;;;;4.75;2.17;;;22.20;85.80;;;;;;5013267;28;20029;-80
2023/06/28 08:11:42;;;;;;;14.38;2.78;;;21.90;85.10;;;;;;5028892;28;20034;-79
2023/06/28 08:14:08;;;;;;;4.90;2.65;;;22.00;85.20;;;;;;5026188;28;20072;-80
2023/06/28 08:16:34;;;;;;;5.90;2.13;;;22.20;84.80;;;;;;5011284;28;20427;-81
2023/06/28 08:19:00;;;;;;;4.53;2.58;;;22.10;84.50;;;;;;5025880;28;20022;-81
2023/06/28 08:21:25;;;;;;;7.93;2.85;;;21.90;84.70;;;;;;5011154;28;20433;-79
2023/06/28 08:23:52;;;;;;;6.82;2.65;;;22.10;84.90;;;;;;5010923;28;20026;-78
2023/06/28 08:26:18;;;;;;;5.85;2.63;;;22.30;85.00;;;;;;5026180;28;20076;-81
2023/06/28 08:28:43;;;;;;;4.82;2.70;;;22.00;82.60;;;;;;5011113;28;20030;-80
2023/06/28 08:31:09;;;;;;;5.10;2.78;;;21.60;83.40;;;;;;5026652;28;20046;-83
2023/06/28 08:33:35;;;;;;;4.40;2.55;;;21.70;83.50;;;;;;5011991;28;20630;-78
2023/06/28 08:36:00;;;;;;;4.57;2.47;;;21.60;81.90;;;;;;5011126;28;20054;-80
2023/06/28 08:38:26;;;;;;;6.15;2.20;;;21.70;82.00;;;;;;5012709;28;20459;-80
2023/06/28 08:40:52;;;;;;;4.50;2.40;;;21.70;84.10;;;;;;5012810;28;20419;-80
2023/06/28 08:43:21;;;;;;;9.18;3.22;;;21.70;82.70;;;;;;5027565;28;20022;-79
2023/06/28 08:45:47;;;;;;;5.18;2.80;;;21.70;82.40;;;;;;5012582;28;20030;-81
2023/06/28 08:48:14;;;;;;;4.53;2.40;;;21.80;81.00;;;;;;5012747;28;20042;-80
2023/06/28 08:50:43;;;;;;;6.95;3.03;;;22.00;82.70;;;;;;5012675;28;20068;-80
2023/06/28 08:53:16;;;;;;;7.50;2.38;;;22.20;81.70;;;;;;5012559;28;20160;-79
2023/06/28 08:55:43;;;;;;;8.52;2.90;;;22.20;79.00;;;;;;5027412;28;20056;-80
2023/06/28 08:58:11;;;;;;;5.30;3.08;;;22.10;80.80;;;;;;5012576;28;20232;-80
2023/06/28 09:00:37;;;;;;;4.53;2.72;;;22.10;80.50;;;;;;5012121;28;20395;-78
2023/06/28 09:03:03;;;;;;;8.50;3.28;;;21.90;80.40;;;;;;5012139;28;20025;-80
2023/06/28 09:05:29;;;;;;;5.32;2.50;;;22.00;80.20;;;;;;5014672;28;20022;-78
2023/06/28 09:07:56;;;;;;;8.90;2.33;;;22.40;81.00;;;;;;5029376;28;20038;-81
2023/06/28 09:10:23;;;;;;;4.75;3.05;;;22.30;77.80;;;;;;5015479;28;20045;-80
2023/06/28 09:12:49;;;;;;;4.22;2.53;;;22.00;80.60;;;;;;5032145;28;20064;-81
2023/06/28 09:15:21;;;;;;;6.45;3.05;;;21.80;80.00;;;;;;5018159;28;20017;-83
2023/06/28 09:17:46;;;;;;;4.60;2.08;;;21.90;78.90;;;;;;5027752;28;20048;-85
2023/06/28 09:20:20;;;;;;;5.53;2.65;;;21.90;78.50;;;;;;5030870;28;20081;-82
2023/06/28 09:22:59;;;;;;;7.68;2.72;;;22.00;81.10;;;;;;5030115;28;20056;-86
2023/06/28 09:25:31;;;;;;;5.28;2.65;;;22.60;79.70;;;;;;5030034;28;20082;-85
2023/06/28 09:27:57;;;;;;;8.95;2.83;;;22.50;78.30;;;;;;5027977;28;20433;-79
2023/06/28 09:30:23;;;;;;;7.18;2.70;;;22.80;79.50;;;;;;5013926;28;20060;-80
2023/06/28 09:32:52;;;;;;;3.38;2.20;;;23.00;77.60;;;;;;5026588;28;20482;-81
2023/06/28 09:35:18;;;;;;;3.80;2.00;;;23.40;77.70;;;;;;5025002;28;20053;-80
2023/06/28 09:37:58;;;;;;;5.03;2.90;;;23.20;75.20;;;;;;5010263;28;20064;-80
2023/06/28 09:40:24;;;;;;;8.05;2.60;;;23.60;74.50;;;;;;5010022;28;20466;-82
2023/06/28 09:42:51;;;;;;;6.05;2.35;;;23.70;76.20;;;;;;5018615;28;20047;-78
2023/06/28 09:45:31;;;;;;;5.10;2.88;;;23.90;76.20;;;;;;5011637;28;20036;-78
2023/06/28 09:48:01;;;;;;;7.38;2.30;;;24.30;74.50;;;;;;5012896;28;20107;-86
2023/06/28 09:50:45;;;;;;;6.22;2.92;;;24.20;76.80;;;;;;5010088;28;20061;-85
2023/06/28 09:53:17;;;;;;;7.80;2.47;;;24.20;75.70;;;;;;5011352;28;20026;-82
2023/06/28 09:55:47;;;;;;;8.10;1.98;;;24.80;69.50;;;;;;5011356;28;20026;-79
2023/06/28 09:58:17;;;;;;;4.40;2.47;;;24.80;70.30;;;;;;5025494;28;20482;-77
2023/06/28 10:00:45;;;;;;;5.70;2.42;;;24.90;70.40;;;;;;5008529;28;20038;-83
2023/06/28 10:03:12;;;;;;;5.18;2.00;;;25.00;70.50;;;;;;5008891;28;20025;-86
2023/06/28 10:05:39;;;;;;;7.38;2.67;;;25.20;71.70;;;;;;5009911;28;20326;-86
2023/06/28 10:08:09;;;;;;;2.67;1.63;;;25.10;69.90;;;;;;4999362;28;20490;-81
2023/06/28 10:10:35;;;;;;;;;;;24.50;68.40;;;;;;5024169;28;20056;-79
2023/06/28 10:13:03;;;;;;;5.10;1.98;;;24.60;68.90;;;;;;5007996;28;19905;-80
2023/06/28 10:15:53;;;;;;;3.03;1.70;;;24.70;68.50;;;;;;5008944;28;20491;-80
2023/06/28 10:18:20;;;;;;;4.00;1.85;;;24.80;69.00;;;;;;5008538;28;20057;-80
2023/06/28 10:20:47;;;;;;;1.42;1.33;;;24.70;66.50;;;;;;5010102;28;20101;-80
2023/06/28 10:23:13;;;;;;;3.05;1.55;;;24.70;67.30;;;;;;5010712;28;20028;-79
2023/06/28 10:25:44;;;;;;;5.93;2.08;;;25.00;67.50;;;;;;5010633;28;20060;-79
2023/06/28 10:28:12;;;;;;;4.35;1.95;;;25.70;66.30;;;;;;5010568;28;20296;-81
2023/06/28 10:30:45;;;;;;;6.05;1.80;;;25.80;64.80;;;;;;5010579;28;20041;-79
2023/06/28 10:33:13;;;;;;;4.63;1.52;;;25.80;64.30;;;;;;5010531;28;20028;-79
2023/06/28 10:35:39;;;;;;;2.30;1.67;;;25.60;64.30;;;;;;5009972;28;20169;-78
2023/06/28 10:38:05;;;;;;;2.85;1.83;;;25.40;65.30;;;;;;5008768;28;20180;-78
2023/06/28 10:40:31;;;;;;;7.65;2.50;;;25.70;68.00;;;;;;5010239;28;20490;-78
2023/06/28 10:42:57;;;;;;;4.32;1.48;;;26.00;65.00;;;;;;5009806;28;20502;-78
2023/06/28 10:45:37;;;;;;;1.83;1.33;;;26.60;65.50;;;;;;5009943;28;20065;-80
2023/06/28 10:48:04;;;;;;;2.42;1.10;;;26.90;64.00;;;;;;5008436;28;20033;-78
2023/06/28 10:50:40;;;;;;;3.63;1.40;;;27.10;62.70;;;;;;5009397;28;20045;-80
2023/06/28 10:53:06;;;;;;;5.85;1.40;;;27.70;63.80;;;;;;5008348;28;20030;-71
2023/06/28 10:55:34;;;;;;;2.85;1.23;;;28.10;62.50;;;;;;5010050;28;20371;-69
2023/06/28 10:58:07;;;;;;;4.95;1.63;;;28.30;61.90;;;;;;5009257;28;20037;-69
2023/06/28 11:00:41;;;;;;;4.97;1.90;;;28.20;60.20;;;;;;5010022;28;20405;-69
2023/06/28 11:03:07;;;;;;;4.97;1.50;;;28.10;58.40;;;;;;5009760;28;20088;-69
2023/06/28 11:05:59;;;;;;;4.28;1.70;;;27.40;60.70;;;;;;5009584;28;20029;-70
2023/06/28 11:08:45;;;;;;;3.50;1.40;;;27.00;60.70;;;;;;5005319;28;20030;-69
2023/06/28 11:11:34;;;;;;;4.75;1.33;;;27.20;59.60;;;;;;5009293;28;20037;-73
2023/06/28 11:14:22;;;;;;;3.80;1.20;;;26.70;59.40;;;;;;5023894;28;20040;-73
2023/06/28 11:16:49;;;;;;;4.28;1.70;;;26.90;58.10;;;;;;5024464;28;20421;-71
2023/06/28 11:19:18;;;;;;;4.70;1.40;;;27.10;57.30;;;;;;5009742;28;20048;-72
2023/06/28 11:21:49;;;;;;;5.40;1.42;;;27.30;58.10;;;;;;5009680;28;20026;-73
2023/06/28 11:24:44;;;;;;;3.17;1.48;;;27.60;57.60;;;;;;5009013;28;20117;-72
2023/06/28 11:27:14;;;;;;;2.67;1.27;;;27.80;57.70;;;;;;5008379;28;20065;-73
2023/06/28 11:29:53;;;;;;;2.22;1.30;;;27.90;56.30;;;;;;5009054;28;20026;-71
2023/06/28 11:32:27;;;;;;;2.20;1.17;;;28.00;57.00;;;;;;5008758;28;20053;-70
2023/06/28 11:34:55;;;;;;;5.68;1.50;;;27.70;55.40;;;;;;5009153;28;20029;-68
2023/06/28 11:37:22;;;;;;;3.95;1.33;;;27.70;57.80;;;;;;5016769;28;20017;-70
2023/06/28 11:39:49;;;;;;;1.98;1.45;;;27.30;55.50;;;;;;5015348;28;20096;-69
2023/06/28 11:42:14;;;;;;;1.88;1.00;;;27.60;56.40;;;;;;5007214;28;20516;-69
2023/06/28 11:44:49;;;;;;;5.20;2.20;;;27.40;56.10;;;;;;5004205;28;20022;-66
2023/06/28 11:47:21;;;;;;;4.45;1.35;;;27.60;55.90;;;;;;5005454;28;20018;-70
2023/06/28 11:49:47;;;;;;;1.35;0.90;;;27.70;56.70;;;;;;5023207;28;20071;-69
2023/06/28 11:52:22;;;;;;;5.60;2.00;;;27.70;55.60;;;;;;5006621;28;20030;-68
2023/06/28 11:54:48;;;;;;;1.98;1.20;;;28.40;57.20;;;;;;5008991;28;20044;-69
2023/06/28 11:57:13;;;;;;;1.85;1.30;;;29.60;57.10;;;;;;5008300;28;20029;-70
2023/06/28 11:59:44;;;;;;;4.28;1.30;;;29.90;53.20;;;;;;5008787;28;20279;-74
2023/06/28 12:02:10;;;;;;;2.05;1.17;;;30.30;54.00;;;;;;5023427;28;20022;-73
2023/06/28 12:04:37;;;;;;;4.07;1.63;;;30.20;52.10;;;;;;5024870;28;20045;-74
2023/06/28 12:07:04;;;;;;;3.03;1.65;;;29.90;52.00;;;;;;5033962;28;20080;-73
2023/06/28 12:09:35;;;;;;;2.35;1.40;;;29.70;51.90;;;;;;5034564;28;20022;-73
2023/06/28 12:12:06;;;;;;;4.65;1.90;;;30.30;52.60;;;;;;5015088;28;20105;-74
2023/06/28 12:14:39;;;;;;;2.58;1.02;;;29.50;51.80;;;;;;5018970;28;20013;-73
2023/06/28 12:17:05;;;;;;;3.22;1.40;;;30.50;53.20;;;;;;5018542;28;20085;-74
2023/06/28 12:19:35;;;;;;;2.17;1.17;;;30.10;52.00;;;;;;5019196;28;20059;-74
2023/06/28 12:22:07;;;;;;;4.35;1.65;;;30.10;53.50;;;;;;5018410;28;20029;-74
2023/06/28 12:24:34;;;;;;;3.03;1.30;;;29.40;52.80;;;;;;5018577;28;20072;-73
2023/06/28 12:27:05;;;;;;;3.15;1.30;;;30.20;52.40;;;;;;5017334;28;20105;-73
2023/06/28 12:29:35;;;;;;;5.45;2.03;;;30.80;51.40;;;;;;5012566;28;20443;-70
2023/06/28 12:32:10;;;;;;;4.88;1.48;;;31.90;50.10;;;;;;5006248;28;20122;-71
2023/06/28 12:34:38;;;;;;;3.45;1.00;;;31.90;48.80;;;;;;5006057;28;20339;-71
2023/06/28 12:37:08;;;;;;;2.83;1.20;;;31.70;49.50;;;;;;5006769;28;20030;-73
2023/06/28 12:39:36;;;;;;;2.67;1.40;;;30.20;49.60;;;;;;5006474;28;20018;-74
2023/06/28 12:42:21;;;;;;;3.33;1.40;;;29.40;52.30;;;;;;5006097;28;20033;-74
2023/06/28 12:44:52;;;;;;;2.60;0.93;;;30.10;52.70;;;;;;5021242;28;20030;-74
2023/06/28 12:47:23;;;;;;;7.05;1.67;;;30.20;51.50;;;;;;5023134;28;20494;-74
2023/06/28 12:49:51;;;;;;;5.50;2.10;;;29.40;51.00;;;;;;5008569;28;20097;-73
2023/06/28 12:52:17;;;;;;;1.67;1.17;;;30.00;51.90;;;;;;5009560;28;20054;-75